sensor_id;sensor_type;location;lat;lon;timestamp;P1;durP1;ratioP1;P2;durP2;ratioP2
21140;SDS011;10728;53.284;10.314;2022-12-20T04:04:23;19.93;;;9.93;;
21140;SDS011;10728;53.284;10.314;2022-12-20T04:06:50;19.20;;;9.70;;
21140;SDS011;10728;53.284;10.314;2022-12-20T04:09:15;13.83;;;9.70;;
21140;SDS011;10728;53.284;10.314;2022-12-20T04:11:55;16.77;;;9.97;;
21140;SDS011;10728;53.284;10.314;2022-12-20T04:14:22;17.77;;;10.83;;
21140;SDS011;10728;53.284;10.314;2022-12-20T04:16:48;17.93;;;10.80;;
21140;SDS011;10728;53.284;10.314;2022-12-20T04:19:14;17.90;;;10.40;;
21140;SDS011;10728;53.284;10.314;2022-12-20T04:21:59;18.17;;;10.87;;
21140;SDS011;10728;53.284;10.314;2022-12-20T04:24:32;16.53;;;10.53;;
21140;SDS011;10728;53.284;10.314;2022-12-20T04:27:14;18.57;;;10.30;;
21140;SDS011;10728;53.284;10.314;2022-12-20T04:29:40;16.20;;;10.07;;
21140;SDS011;10728;53.284;10.314;2022-12-20T04:32:10;17.13;;;10.10;;
21140;SDS011;10728;53.284;10.314;2022-12-20T04:34:36;17.37;;;9.87;;
21140;SDS011;10728;53.284;10.314;2022-12-20T04:37:01;14.77;;;9.20;;
21140;SDS011;10728;53.284;10.314;2022-12-20T04:39:37;18.50;;;10.70;;
21140;SDS011;10728;53.284;10.314;2022-12-20T04:42:28;19.10;;;10.37;;
21140;SDS011;10728;53.284;10.314;2022-12-20T04:44:55;12.97;;;9.23;;
21140;SDS011;10728;53.284;10.314;2022-12-20T04:47:24;17.87;;;10.47;;
21140;SDS011;10728;53.284;10.314;2022-12-20T04:49:52;17.53;;;10.33;;
21140;SDS011;10728;53.284;10.314;2022-12-20T04:52:17;15.97;;;9.57;;
21140;SDS011;10728;53.284;10.314;2022-12-20T04:55:01;13.80;;;8.70;;
21140;SDS011;10728;53.284;10.314;2022-12-20T04:57:30;16.10;;;9.20;;
21140;SDS011;10728;53.284;10.314;2022-12-20T04:59:56;14.87;;;9.67;;
21140;SDS011;10728;53.284;10.314;2022-12-20T05:02:22;14.17;;;9.37;;
21140;SDS011;10728;53.284;10.314;2022-12-20T05:05:06;16.67;;;10.20;;
21140;SDS011;10728;53.284;10.314;2022-12-20T05:07:38;14.07;;;9.03;;
21140;SDS011;10728;53.284;10.314;2022-12-20T05:10:04;16.17;;;9.47;;
21140;SDS011;10728;53.284;10.314;2022-12-20T05:12:30;12.97;;;9.20;;
21140;SDS011;10728;53.284;10.314;2022-12-20T05:14:58;16.63;;;9.80;;
21140;SDS011;10728;53.284;10.314;2022-12-20T05:17:24;16.80;;;9.20;;
21140;SDS011;10728;53.284;10.314;2022-12-20T05:20:09;15.77;;;9.50;;
21140;SDS011;10728;53.284;10.314;2022-12-20T05:22:38;16.53;;;10.27;;
21140;SDS011;10728;53.284;10.314;2022-12-20T05:25:22;18.40;;;9.93;;
21140;SDS011;10728;53.284;10.314;2022-12-20T05:28:06;14.73;;;9.80;;
21140;SDS011;10728;53.284;10.314;2022-12-20T05:30:35;16.03;;;10.03;;
21140;SDS011;10728;53.284;10.314;2022-12-20T05:33:01;18.03;;;10.47;;
21140;SDS011;10728;53.284;10.314;2022-12-20T05:35:27;18.10;;;10.50;;
21140;SDS011;10728;53.284;10.314;2022-12-20T05:38:00;19.20;;;10.27;;
21140;SDS011;10728;53.284;10.314;2022-12-20T05:40:27;13.43;;;9.57;;
21140;SDS011;10728;53.284;10.314;2022-12-20T05:42:52;16.90;;;10.37;;
21140;SDS011;10728;53.284;10.314;2022-12-20T05:45:20;18.57;;;11.17;;
21140;SDS011;10728;53.284;10.314;2022-12-20T05:47:58;19.97;;;11.00;;
21140;SDS011;10728;53.284;10.314;2022-12-20T05:50:23;17.67;;;10.93;;
21140;SDS011;10728;53.284;10.314;2022-12-20T05:53:25;19.87;;;11.10;;
21140;SDS011;10728;53.284;10.314;2022-12-20T05:55:54;20.13;;;11.13;;
21140;SDS011;10728;53.284;10.314;2022-12-20T05:58:40;20.57;;;11.47;;
21140;SDS011;10728;53.284;10.314;2022-12-20T06:01:06;17.33;;;11.00;;
21140;SDS011;10728;53.284;10.314;2022-12-20T06:03:45;17.57;;;11.17;;
21140;SDS011;10728;53.284;10.314;2022-12-20T06:06:31;16.77;;;10.93;;
21140;SDS011;10728;53.284;10.314;2022-12-20T06:09:05;17.47;;;10.43;;
21140;SDS011;10728;53.284;10.314;2022-12-20T06:11:38;18.40;;;10.63;;
21140;SDS011;10728;53.284;10.314;2022-12-20T06:14:20;19.40;;;10.70;;
21140;SDS011;10728;53.284;10.314;2022-12-20T06:16:46;17.80;;;10.33;;
21140;SDS011;10728;53.284;10.314;2022-12-20T06:19:29;18.67;;;10.87;;
21140;SDS011;10728;53.284;10.314;2022-12-20T06:22:14;16.50;;;10.70;;
21140;SDS011;10728;53.284;10.314;2022-12-20T06:24:59;16.43;;;11.03;;
21140;SDS011;10728;53.284;10.314;2022-12-20T06:27:30;19.57;;;12.30;;
21140;SDS011;10728;53.284;10.314;2022-12-20T06:30:04;19.30;;;11.50;;
21140;SDS011;10728;53.284;10.314;2022-12-20T06:32:50;19.03;;;11.90;;
21140;SDS011;10728;53.284;10.314;2022-12-20T06:35:15;16.63;;;10.80;;
21140;SDS011;10728;53.284;10.314;2022-12-20T06:37:41;23.87;;;11.53;;
21140;SDS011;10728;53.284;10.314;2022-12-20T06:45:42;17.73;;;11.43;;
21140;SDS011;10728;53.284;10.314;2022-12-20T06:51:22;17.93;;;11.50;;
21140;SDS011;10728;53.284;10.314;2022-12-20T06:53:47;18.80;;;11.33;;
21140;SDS011;10728;53.284;10.314;2022-12-20T06:56:13;17.80;;;11.53;;
21140;SDS011;10728;53.284;10.314;2022-12-20T06:58:38;19.50;;;11.53;;
21140;SDS011;10728;53.284;10.314;2022-12-20T07:01:04;17.80;;;12.07;;
21140;SDS011;10728;53.284;10.314;2022-12-20T07:03:29;19.57;;;12.30;;
21140;SDS011;10728;53.284;10.314;2022-12-20T07:05:55;19.50;;;11.43;;
21140;SDS011;10728;53.284;10.314;2022-12-20T07:08:21;18.10;;;11.17;;
21140;SDS011;10728;53.284;10.314;2022-12-20T07:11:02;18.23;;;11.47;;
21140;SDS011;10728;53.284;10.314;2022-12-20T07:13:47;16.80;;;10.67;;
21140;SDS011;10728;53.284;10.314;2022-12-20T07:16:33;17.20;;;11.37;;
21140;SDS011;10728;53.284;10.314;2022-12-20T07:21:40;18.10;;;11.83;;
21140;SDS011;10728;53.284;10.314;2022-12-20T07:24:21;19.47;;;11.77;;
21140;SDS011;10728;53.284;10.314;2022-12-20T07:26:46;17.30;;;11.77;;
21140;SDS011;10728;53.284;10.314;2022-12-20T07:29:12;20.27;;;12.10;;
21140;SDS011;10728;53.284;10.314;2022-12-20T07:31:38;17.83;;;11.27;;
21140;SDS011;10728;53.284;10.314;2022-12-20T07:34:03;20.37;;;13.03;;
21140;SDS011;10728;53.284;10.314;2022-12-20T07:36:29;17.60;;;11.63;;
21140;SDS011;10728;53.284;10.314;2022-12-20T07:38:54;17.67;;;11.83;;
21140;SDS011;10728;53.284;10.314;2022-12-20T07:41:20;19.03;;;12.20;;
21140;SDS011;10728;53.284;10.314;2022-12-20T07:43:45;19.10;;;11.33;;
21140;SDS011;10728;53.284;10.314;2022-12-20T07:46:14;21.67;;;11.90;;
21140;SDS011;10728;53.284;10.314;2022-12-20T07:48:40;17.30;;;10.53;;
21140;SDS011;10728;53.284;10.314;2022-12-20T07:51:07;20.43;;;11.10;;
21140;SDS011;10728;53.284;10.314;2022-12-20T07:53:36;16.53;;;10.40;;
21140;SDS011;10728;53.284;10.314;2022-12-20T07:56:03;16.43;;;10.93;;
21140;SDS011;10728;53.284;10.314;2022-12-20T07:58:30;16.90;;;10.97;;
21140;SDS011;10728;53.284;10.314;2022-12-20T08:00:57;13.97;;;9.43;;
21140;SDS011;10728;53.284;10.314;2022-12-20T08:03:24;15.53;;;9.77;;
21140;SDS011;10728;53.284;10.314;2022-12-20T08:05:54;17.63;;;10.47;;
21140;SDS011;10728;53.284;10.314;2022-12-20T08:08:21;16.87;;;10.30;;
21140;SDS011;10728;53.284;10.314;2022-12-20T08:10:46;17.37;;;10.87;;
21140;SDS011;10728;53.284;10.314;2022-12-20T08:13:12;18.80;;;10.63;;
21140;SDS011;10728;53.284;10.314;2022-12-20T08:15:38;16.47;;;10.67;;
21140;SDS011;10728;53.284;10.314;2022-12-20T08:18:03;18.83;;;10.73;;
21140;SDS011;10728;53.284;10.314;2022-12-20T08:20:31;16.70;;;10.53;;
21140;SDS011;10728;53.284;10.314;2022-12-20T08:22:56;14.87;;;10.53;;
21140;SDS011;10728;53.284;10.314;2022-12-20T08:25:22;18.23;;;11.03;;
21140;SDS011;10728;53.284;10.314;2022-12-20T08:27:48;16.57;;;10.43;;
21140;SDS011;10728;53.284;10.314;2022-12-20T08:30:13;17.70;;;10.33;;
21140;SDS011;10728;53.284;10.314;2022-12-20T08:32:39;16.63;;;10.80;;
21140;SDS011;10728;53.284;10.314;2022-12-20T08:35:05;15.67;;;9.77;;
21140;SDS011;10728;53.284;10.314;2022-12-20T08:37:31;17.33;;;10.23;;
21140;SDS011;10728;53.284;10.314;2022-12-20T08:39:56;13.77;;;10.20;;
21140;SDS011;10728;53.284;10.314;2022-12-20T08:42:22;19.53;;;10.60;;
21140;SDS011;10728;53.284;10.314;2022-12-20T08:44:47;15.27;;;10.57;;
21140;SDS011;10728;53.284;10.314;2022-12-20T08:47:13;15.63;;;10.80;;
21140;SDS011;10728;53.284;10.314;2022-12-20T08:49:38;17.93;;;9.73;;
21140;SDS011;10728;53.284;10.314;2022-12-20T08:52:04;15.90;;;9.90;;
21140;SDS011;10728;53.284;10.314;2022-12-20T08:54:29;18.17;;;10.70;;
21140;SDS011;10728;53.284;10.314;2022-12-20T08:56:55;16.03;;;10.13;;
21140;SDS011;10728;53.284;10.314;2022-12-20T08:59:20;15.50;;;9.77;;
21140;SDS011;10728;53.284;10.314;2022-12-20T09:01:45;15.27;;;9.43;;
21140;SDS011;10728;53.284;10.314;2022-12-20T09:04:11;16.83;;;10.10;;
21140;SDS011;10728;53.284;10.314;2022-12-20T09:06:37;13.37;;;9.10;;
21140;SDS011;10728;53.284;10.314;2022-12-20T09:09:02;17.07;;;9.63;;
21140;SDS011;10728;53.284;10.314;2022-12-20T09:11:28;16.03;;;9.73;;
21140;SDS011;10728;53.284;10.314;2022-12-20T09:13:55;15.40;;;8.67;;
21140;SDS011;10728;53.284;10.314;2022-12-20T09:16:23;15.20;;;9.07;;
21140;SDS011;10728;53.284;10.314;2022-12-20T09:18:52;14.67;;;8.47;;
21140;SDS011;10728;53.284;10.314;2022-12-20T09:21:20;14.03;;;8.20;;
21140;SDS011;10728;53.284;10.314;2022-12-20T09:23:45;15.97;;;8.80;;
21140;SDS011;10728;53.284;10.314;2022-12-20T09:26:13;13.63;;;8.37;;
21140;SDS011;10728;53.284;10.314;2022-12-20T09:28:39;12.43;;;7.80;;
21140;SDS011;10728;53.284;10.314;2022-12-20T09:31:07;14.30;;;8.80;;
21140;SDS011;10728;53.284;10.314;2022-12-20T09:33:35;13.13;;;8.53;;
21140;SDS011;10728;53.284;10.314;2022-12-20T09:36:01;10.87;;;7.80;;
21140;SDS011;10728;53.284;10.314;2022-12-20T09:38:27;10.23;;;7.73;;
21140;SDS011;10728;53.284;10.314;2022-12-20T09:40:54;12.47;;;7.53;;
21140;SDS011;10728;53.284;10.314;2022-12-20T09:43:21;13.80;;;7.87;;
21140;SDS011;10728;53.284;10.314;2022-12-20T09:45:47;12.53;;;7.60;;
21140;SDS011;10728;53.284;10.314;2022-12-20T09:48:18;11.97;;;8.03;;
21140;SDS011;10728;53.284;10.314;2022-12-20T09:50:56;11.87;;;7.73;;
21140;SDS011;10728;53.284;10.314;2022-12-20T09:53:40;12.80;;;7.57;;
21140;SDS011;10728;53.284;10.314;2022-12-20T09:56:25;14.97;;;7.97;;
21140;SDS011;10728;53.284;10.314;2022-12-20T09:58:57;12.80;;;7.93;;
21140;SDS011;10728;53.284;10.314;2022-12-20T10:01:31;14.53;;;7.37;;
21140;SDS011;10728;53.284;10.314;2022-12-20T10:03:59;10.50;;;7.27;;
21140;SDS011;10728;53.284;10.314;2022-12-20T10:06:38;11.60;;;7.40;;
21140;SDS011;10728;53.284;10.314;2022-12-20T10:12:08;15.07;;;7.13;;
21140;SDS011;10728;53.284;10.314;2022-12-20T10:27:42;11.73;;;7.00;;
21140;SDS011;10728;53.284;10.314;2022-12-20T10:30:11;10.00;;;6.33;;
21140;SDS011;10728;53.284;10.314;2022-12-20T10:32:41;12.00;;;6.90;;
21140;SDS011;10728;53.284;10.314;2022-12-20T10:37:35;10.63;;;6.73;;
21140;SDS011;10728;53.284;10.314;2022-12-20T10:40:01;9.50;;;6.43;;
21140;SDS011;10728;53.284;10.314;2022-12-20T10:45:02;11.37;;;6.27;;
21140;SDS011;10728;53.284;10.314;2022-12-20T10:50:07;8.87;;;6.03;;
21140;SDS011;10728;53.284;10.314;2022-12-20T10:52:40;8.07;;;6.10;;
21140;SDS011;10728;53.284;10.314;2022-12-20T10:55:30;10.83;;;6.83;;
21140;SDS011;10728;53.284;10.314;2022-12-20T10:58:00;10.97;;;6.33;;
21140;SDS011;10728;53.284;10.314;2022-12-20T11:00:30;9.10;;;5.80;;
21140;SDS011;10728;53.284;10.314;2022-12-20T11:03:16;10.73;;;6.17;;
21140;SDS011;10728;53.284;10.314;2022-12-20T11:05:51;10.87;;;6.33;;
21140;SDS011;10728;53.284;10.314;2022-12-20T11:08:20;11.20;;;5.80;;
21140;SDS011;10728;53.284;10.314;2022-12-20T11:10:46;13.93;;;6.70;;
21140;SDS011;10728;53.284;10.314;2022-12-20T11:13:19;7.17;;;5.47;;
21140;SDS011;10728;53.284;10.314;2022-12-20T11:15:50;7.37;;;5.80;;
21140;SDS011;10728;53.284;10.314;2022-12-20T11:18:24;9.53;;;5.70;;
21140;SDS011;10728;53.284;10.314;2022-12-20T11:26:07;12.93;;;5.97;;
21140;SDS011;10728;53.284;10.314;2022-12-20T11:36:58;9.07;;;5.50;;
21140;SDS011;10728;53.284;10.314;2022-12-20T11:42:16;9.97;;;5.87;;
21140;SDS011;10728;53.284;10.314;2022-12-20T11:53:23;6.53;;;4.50;;
21140;SDS011;10728;53.284;10.314;2022-12-20T11:55:54;10.80;;;5.37;;
21140;SDS011;10728;53.284;10.314;2022-12-20T11:58:30;9.13;;;5.10;;
21140;SDS011;10728;53.284;10.314;2022-12-20T12:01:03;6.47;;;4.97;;
21140;SDS011;10728;53.284;10.314;2022-12-20T12:03:38;9.53;;;5.10;;
21140;SDS011;10728;53.284;10.314;2022-12-20T12:06:11;9.33;;;4.93;;
21140;SDS011;10728;53.284;10.314;2022-12-20T12:08:52;11.43;;;4.97;;
21140;SDS011;10728;53.284;10.314;2022-12-20T12:11:25;7.43;;;5.20;;
21140;SDS011;10728;53.284;10.314;2022-12-20T12:13:53;8.83;;;5.10;;
21140;SDS011;10728;53.284;10.314;2022-12-20T12:16:21;8.30;;;5.30;;
21140;SDS011;10728;53.284;10.314;2022-12-20T12:18:50;8.00;;;5.00;;
21140;SDS011;10728;53.284;10.314;2022-12-20T12:21:27;9.20;;;4.60;;
21140;SDS011;10728;53.284;10.314;2022-12-20T12:26:38;9.87;;;5.17;;
21140;SDS011;10728;53.284;10.314;2022-12-20T12:29:14;8.53;;;5.60;;
21140;SDS011;10728;53.284;10.314;2022-12-20T12:32:01;9.63;;;5.47;;
21140;SDS011;10728;53.284;10.314;2022-12-20T12:40:09;8.73;;;5.00;;
21140;SDS011;10728;53.284;10.314;2022-12-20T12:45:54;6.97;;;4.13;;
21140;SDS011;10728;53.284;10.314;2022-12-20T12:48:16;9.97;;;4.63;;
21140;SDS011;10728;53.284;10.314;2022-12-20T12:50:45;7.37;;;4.50;;
21140;SDS011;10728;53.284;10.314;2022-12-20T12:55:46;7.43;;;4.77;;
21140;SDS011;10728;53.284;10.314;2022-12-20T13:03:40;7.97;;;4.37;;
21140;SDS011;10728;53.284;10.314;2022-12-20T13:11:34;6.90;;;3.83;;
21140;SDS011;10728;53.284;10.314;2022-12-20T13:16:48;7.30;;;4.07;;
21140;SDS011;10728;53.284;10.314;2022-12-20T13:19:39;9.83;;;4.27;;
21140;SDS011;10728;53.284;10.314;2022-12-20T13:24:36;17.20;;;9.63;;
21140;SDS011;10728;53.284;10.314;2022-12-20T13:29:52;11.53;;;7.47;;
21140;SDS011;10728;53.284;10.314;2022-12-20T13:38:00;11.07;;;6.33;;
21140;SDS011;10728;53.284;10.314;2022-12-20T13:43:09;12.77;;;8.17;;
21140;SDS011;10728;53.284;10.314;2022-12-20T13:45:42;9.30;;;5.80;;
21140;SDS011;10728;53.284;10.314;2022-12-20T13:48:11;13.40;;;5.00;;
21140;SDS011;10728;53.284;10.314;2022-12-20T13:50:40;6.83;;;5.13;;
21140;SDS011;10728;53.284;10.314;2022-12-20T13:53:17;7.10;;;4.90;;
21140;SDS011;10728;53.284;10.314;2022-12-20T13:55:44;6.07;;;4.20;;
21140;SDS011;10728;53.284;10.314;2022-12-20T13:58:14;10.10;;;8.27;;
21140;SDS011;10728;53.284;10.314;2022-12-20T14:00:42;8.00;;;4.63;;
21140;SDS011;10728;53.284;10.314;2022-12-20T14:06:03;8.27;;;4.97;;
21140;SDS011;10728;53.284;10.314;2022-12-20T14:08:35;8.50;;;4.53;;
21140;SDS011;10728;53.284;10.314;2022-12-20T14:11:16;7.53;;;4.23;;
21140;SDS011;10728;53.284;10.314;2022-12-20T14:13:50;5.27;;;3.40;;
21140;SDS011;10728;53.284;10.314;2022-12-20T14:16:19;9.40;;;6.53;;
21140;SDS011;10728;53.284;10.314;2022-12-20T14:19:01;7.73;;;5.00;;
21140;SDS011;10728;53.284;10.314;2022-12-20T14:21:27;12.97;;;7.97;;
21140;SDS011;10728;53.284;10.314;2022-12-20T14:23:54;11.03;;;6.67;;
21140;SDS011;10728;53.284;10.314;2022-12-20T14:26:21;8.87;;;7.00;;
21140;SDS011;10728;53.284;10.314;2022-12-20T14:28:49;11.47;;;4.87;;
21140;SDS011;10728;53.284;10.314;2022-12-20T14:34:04;6.70;;;4.50;;
21140;SDS011;10728;53.284;10.314;2022-12-20T14:36:31;7.93;;;3.93;;
21140;SDS011;10728;53.284;10.314;2022-12-20T14:38:58;7.43;;;4.43;;
21140;SDS011;10728;53.284;10.314;2022-12-20T14:44:03;7.63;;;4.70;;
21140;SDS011;10728;53.284;10.314;2022-12-20T14:46:38;6.67;;;4.63;;
21140;SDS011;10728;53.284;10.314;2022-12-20T14:51:43;11.27;;;7.33;;
21140;SDS011;10728;53.284;10.314;2022-12-20T14:54:12;6.53;;;4.33;;
21140;SDS011;10728;53.284;10.314;2022-12-20T14:56:45;8.40;;;6.70;;
21140;SDS011;10728;53.284;10.314;2022-12-20T14:59:27;7.73;;;5.83;;
21140;SDS011;10728;53.284;10.314;2022-12-20T15:01:56;10.03;;;5.97;;
21140;SDS011;10728;53.284;10.314;2022-12-20T15:04:39;10.60;;;6.20;;
21140;SDS011;10728;53.284;10.314;2022-12-20T15:17:13;9.57;;;4.37;;
21140;SDS011;10728;53.284;10.314;2022-12-20T15:24:28;6.63;;;4.07;;
21140;SDS011;10728;53.284;10.314;2022-12-20T15:34:13;7.03;;;4.27;;
21140;SDS011;10728;53.284;10.314;2022-12-20T15:37:29;6.00;;;3.87;;
21140;SDS011;10728;53.284;10.314;2022-12-20T15:39:58;7.13;;;3.80;;
21140;SDS011;10728;53.284;10.314;2022-12-20T15:42:53;9.27;;;4.00;;
21140;SDS011;10728;53.284;10.314;2022-12-20T15:45:19;9.03;;;4.23;;
21140;SDS011;10728;53.284;10.314;2022-12-20T15:47:44;6.90;;;3.90;;
21140;SDS011;10728;53.284;10.314;2022-12-20T15:50:10;6.37;;;4.30;;
21140;SDS011;10728;53.284;10.314;2022-12-20T15:55:17;6.60;;;4.37;;
21140;SDS011;10728;53.284;10.314;2022-12-20T15:57:43;8.10;;;4.60;;
21140;SDS011;10728;53.284;10.314;2022-12-20T22:03:11;10.80;;;8.47;;
21140;SDS011;10728;53.284;10.314;2022-12-20T22:05:37;11.57;;;8.73;;
21140;SDS011;10728;53.284;10.314;2022-12-20T22:08:02;12.23;;;9.20;;
21140;SDS011;10728;53.284;10.314;2022-12-20T22:10:31;9.43;;;8.37;;
21140;SDS011;10728;53.284;10.314;2022-12-20T22:12:56;11.33;;;8.53;;
21140;SDS011;10728;53.284;10.314;2022-12-20T22:15:22;13.90;;;9.70;;
21140;SDS011;10728;53.284;10.314;2022-12-20T22:17:47;10.97;;;8.60;;
21140;SDS011;10728;53.284;10.314;2022-12-20T22:20:12;13.47;;;9.90;;
21140;SDS011;10728;53.284;10.314;2022-12-20T22:22:38;10.70;;;9.47;;
21140;SDS011;10728;53.284;10.314;2022-12-20T22:25:04;13.93;;;10.37;;
21140;SDS011;10728;53.284;10.314;2022-12-20T22:27:29;14.37;;;10.97;;
21140;SDS011;10728;53.284;10.314;2022-12-20T22:29:54;14.67;;;11.70;;
21140;SDS011;10728;53.284;10.314;2022-12-20T22:32:20;17.17;;;11.47;;
21140;SDS011;10728;53.284;10.314;2022-12-20T22:34:45;17.37;;;11.30;;
21140;SDS011;10728;53.284;10.314;2022-12-20T22:37:11;18.17;;;10.80;;
21140;SDS011;10728;53.284;10.314;2022-12-20T22:39:36;17.43;;;10.97;;
21140;SDS011;10728;53.284;10.314;2022-12-20T22:42:02;13.40;;;10.73;;
21140;SDS011;10728;53.284;10.314;2022-12-20T22:44:27;16.47;;;11.40;;
21140;SDS011;10728;53.284;10.314;2022-12-20T22:46:52;17.63;;;11.57;;
21140;SDS011;10728;53.284;10.314;2022-12-20T22:49:18;16.93;;;12.00;;
21140;SDS011;10728;53.284;10.314;2022-12-20T22:51:43;16.47;;;11.77;;
21140;SDS011;10728;53.284;10.314;2022-12-20T22:54:09;16.97;;;11.83;;
21140;SDS011;10728;53.284;10.314;2022-12-20T22:56:34;17.47;;;11.87;;
21140;SDS011;10728;53.284;10.314;2022-12-20T22:59:00;17.80;;;11.77;;
21140;SDS011;10728;53.284;10.314;2022-12-20T23:01:25;18.63;;;12.33;;
21140;SDS011;10728;53.284;10.314;2022-12-20T23:03:51;15.00;;;11.23;;
21140;SDS011;10728;53.284;10.314;2022-12-20T23:06:18;15.93;;;11.10;;
21140;SDS011;10728;53.284;10.314;2022-12-20T23:08:53;17.33;;;12.10;;
21140;SDS011;10728;53.284;10.314;2022-12-20T23:11:20;18.40;;;12.63;;
21140;SDS011;10728;53.284;10.314;2022-12-20T23:14:21;17.17;;;12.27;;
21140;SDS011;10728;53.284;10.314;2022-12-20T23:17:06;17.33;;;12.43;;
21140;SDS011;10728;53.284;10.314;2022-12-20T23:19:46;14.83;;;11.47;;
21140;SDS011;10728;53.284;10.314;2022-12-20T23:22:31;15.33;;;11.03;;
21140;SDS011;10728;53.284;10.314;2022-12-20T23:25:12;15.23;;;11.47;;
21140;SDS011;10728;53.284;10.314;2022-12-20T23:27:48;13.50;;;10.63;;
21140;SDS011;10728;53.284;10.314;2022-12-20T23:32:55;15.43;;;10.97;;
21140;SDS011;10728;53.284;10.314;2022-12-20T23:35:21;18.27;;;12.10;;
21140;SDS011;10728;53.284;10.314;2022-12-20T23:38:42;16.13;;;11.90;;
21140;SDS011;10728;53.284;10.314;2022-12-20T23:43:41;17.75;;;12.15;;
21140;SDS011;10728;53.284;10.314;2022-12-20T23:46:11;19.07;;;12.00;;
21140;SDS011;10728;53.284;10.314;2022-12-20T23:48:54;14.23;;;10.90;;
21140;SDS011;10728;53.284;10.314;2022-12-20T23:51:20;18.20;;;12.47;;
21140;SDS011;10728;53.284;10.314;2022-12-20T23:57:29;16.70;;;11.97;;
21140;SDS011;10728;53.284;10.314;2022-12-20T23:59:59;16.47;;;13.00;;
